Terminal Aerodrome Forecast
Issued by NWS Sioux Falls, SD

Home | Current Version | Previous Version | Graphics & Text | Print | Product List | Glossary Off
Versions: 1 2 3 4 5 6 7 8 9 10 11 12 13 14 15 16 17 18 19 20 21 22 23 24 25 26 27 28 29 30 31 32 33 34

000
FTUS43 KFSD 150216 AAA
TAFSUX
TAF AMD
KSUX 150216Z 1502/1524 13008KT 6SM BR OVC005
     FM150400 11008KT 4SM -RA BR OVC005
     FM150600 06009KT 2SM RA BR OVC003
     FM151600 35012G19KT 4SM RA BR OVC010
     FM152200 33020G30KT 2SM -SN OVC010=

USA.gov is the U.S. government's official web portal to all federal, state and local government web resources and services.